sensor_id;sensor_type;location;lat;lon;timestamp;P1;durP1;ratioP1;P2;durP2;ratioP2
12758;SDS011;20944;47.048;15.390;2023-11-21T00:00:07;10.10;;;5.60;;
12758;SDS011;20944;47.048;15.390;2023-11-21T00:02:39;8.87;;;5.53;;
12758;SDS011;20944;47.048;15.390;2023-11-21T00:05:07;9.27;;;4.97;;
12758;SDS011;20944;47.048;15.390;2023-11-21T00:07:36;8.27;;;5.20;;
12758;SDS011;20944;47.048;15.390;2023-11-21T00:10:05;9.27;;;5.77;;
12758;SDS011;20944;47.048;15.390;2023-11-21T00:12:37;11.40;;;5.43;;
12758;SDS011;20944;47.048;15.390;2023-11-21T00:15:09;11.10;;;4.77;;
12758;SDS011;20944;47.048;15.390;2023-11-21T00:17:39;10.87;;;4.90;;
12758;SDS011;20944;47.048;15.390;2023-11-21T00:20:07;8.93;;;5.03;;
12758;SDS011;20944;47.048;15.390;2023-11-21T00:22:39;11.07;;;5.47;;
12758;SDS011;20944;47.048;15.390;2023-11-21T00:25:09;8.03;;;4.97;;
12758;SDS011;20944;47.048;15.390;2023-11-21T00:27:38;7.27;;;4.70;;
12758;SDS011;20944;47.048;15.390;2023-11-21T00:30:07;6.50;;;4.27;;
12758;SDS011;20944;47.048;15.390;2023-11-21T00:32:36;7.53;;;5.20;;
12758;SDS011;20944;47.048;15.390;2023-11-21T00:35:06;8.30;;;4.70;;
12758;SDS011;20944;47.048;15.390;2023-11-21T00:37:34;6.67;;;4.47;;
12758;SDS011;20944;47.048;15.390;2023-11-21T00:40:03;7.60;;;4.83;;
12758;SDS011;20944;47.048;15.390;2023-11-21T00:42:34;8.97;;;4.77;;
12758;SDS011;20944;47.048;15.390;2023-11-21T00:45:02;11.17;;;5.53;;
12758;SDS011;20944;47.048;15.390;2023-11-21T00:47:32;7.93;;;5.03;;
12758;SDS011;20944;47.048;15.390;2023-11-21T00:50:01;7.73;;;4.67;;
12758;SDS011;20944;47.048;15.390;2023-11-21T00:52:29;8.07;;;5.13;;
12758;SDS011;20944;47.048;15.390;2023-11-21T00:54:57;12.23;;;4.70;;
12758;SDS011;20944;47.048;15.390;2023-11-21T00:57:26;9.13;;;4.90;;
12758;SDS011;20944;47.048;15.390;2023-11-21T00:59:56;11.40;;;5.70;;
12758;SDS011;20944;47.048;15.390;2023-11-21T01:02:24;11.57;;;5.37;;
12758;SDS011;20944;47.048;15.390;2023-11-21T01:04:53;8.97;;;5.97;;
12758;SDS011;20944;47.048;15.390;2023-11-21T01:07:21;12.47;;;5.60;;
12758;SDS011;20944;47.048;15.390;2023-11-21T01:09:49;12.73;;;5.47;;
12758;SDS011;20944;47.048;15.390;2023-11-21T01:12:18;7.30;;;5.03;;
12758;SDS011;20944;47.048;15.390;2023-11-21T01:14:46;9.93;;;5.43;;
12758;SDS011;20944;47.048;15.390;2023-11-21T01:17:15;7.70;;;4.90;;
12758;SDS011;20944;47.048;15.390;2023-11-21T01:19:45;10.30;;;5.53;;
12758;SDS011;20944;47.048;15.390;2023-11-21T01:22:13;12.77;;;5.80;;
12758;SDS011;20944;47.048;15.390;2023-11-21T01:24:42;8.57;;;4.57;;
12758;SDS011;20944;47.048;15.390;2023-11-21T01:27:11;9.33;;;5.30;;
12758;SDS011;20944;47.048;15.390;2023-11-21T01:29:39;6.73;;;4.70;;
12758;SDS011;20944;47.048;15.390;2023-11-21T01:32:07;9.40;;;5.27;;
12758;SDS011;20944;47.048;15.390;2023-11-21T01:34:38;6.43;;;4.90;;
12758;SDS011;20944;47.048;15.390;2023-11-21T01:37:06;10.43;;;6.70;;
12758;SDS011;20944;47.048;15.390;2023-11-21T01:39:34;8.83;;;6.10;;
12758;SDS011;20944;47.048;15.390;2023-11-21T01:42:04;9.83;;;5.87;;
12758;SDS011;20944;47.048;15.390;2023-11-21T01:44:34;11.57;;;6.23;;
12758;SDS011;20944;47.048;15.390;2023-11-21T01:47:02;8.43;;;5.73;;
12758;SDS011;20944;47.048;15.390;2023-11-21T01:49:32;7.67;;;5.43;;
12758;SDS011;20944;47.048;15.390;2023-11-21T01:52:02;8.13;;;5.27;;
12758;SDS011;20944;47.048;15.390;2023-11-21T01:54:31;10.60;;;5.90;;
12758;SDS011;20944;47.048;15.390;2023-11-21T01:57:00;11.03;;;5.87;;
12758;SDS011;20944;47.048;15.390;2023-11-21T01:59:30;6.00;;;4.83;;
12758;SDS011;20944;47.048;15.390;2023-11-21T02:02:02;10.57;;;5.60;;
12758;SDS011;20944;47.048;15.390;2023-11-21T02:04:31;9.83;;;5.80;;
12758;SDS011;20944;47.048;15.390;2023-11-21T02:07:02;10.30;;;6.20;;
12758;SDS011;20944;47.048;15.390;2023-11-21T02:09:31;13.67;;;6.30;;
12758;SDS011;20944;47.048;15.390;2023-11-21T02:12:00;12.20;;;5.93;;
12758;SDS011;20944;47.048;15.390;2023-11-21T02:14:29;11.90;;;6.00;;
12758;SDS011;20944;47.048;15.390;2023-11-21T02:16:58;10.23;;;6.23;;
12758;SDS011;20944;47.048;15.390;2023-11-21T02:19:27;8.60;;;5.37;;
12758;SDS011;20944;47.048;15.390;2023-11-21T02:21:57;9.40;;;5.93;;
12758;SDS011;20944;47.048;15.390;2023-11-21T02:24:31;8.40;;;5.80;;
12758;SDS011;20944;47.048;15.390;2023-11-21T02:26:59;10.73;;;5.77;;
12758;SDS011;20944;47.048;15.390;2023-11-21T02:29:27;8.97;;;5.60;;
12758;SDS011;20944;47.048;15.390;2023-11-21T02:31:56;10.40;;;5.73;;
12758;SDS011;20944;47.048;15.390;2023-11-21T02:34:24;7.90;;;5.60;;
12758;SDS011;20944;47.048;15.390;2023-11-21T02:36:53;7.57;;;5.47;;
12758;SDS011;20944;47.048;15.390;2023-11-21T02:39:22;8.80;;;5.13;;
12758;SDS011;20944;47.048;15.390;2023-11-21T02:41:52;8.00;;;4.47;;
12758;SDS011;20944;47.048;15.390;2023-11-21T02:44:20;9.43;;;4.83;;
12758;SDS011;20944;47.048;15.390;2023-11-21T02:46:49;8.43;;;4.13;;
12758;SDS011;20944;47.048;15.390;2023-11-21T02:49:17;10.10;;;4.60;;
12758;SDS011;20944;47.048;15.390;2023-11-21T02:51:45;6.57;;;4.60;;
12758;SDS011;20944;47.048;15.390;2023-11-21T02:54:13;8.10;;;4.70;;
12758;SDS011;20944;47.048;15.390;2023-11-21T02:56:45;8.57;;;4.73;;
12758;SDS011;20944;47.048;15.390;2023-11-21T02:59:15;6.13;;;4.27;;
12758;SDS011;20944;47.048;15.390;2023-11-21T03:01:43;8.73;;;4.97;;
12758;SDS011;20944;47.048;15.390;2023-11-21T03:04:12;10.53;;;5.37;;
12758;SDS011;20944;47.048;15.390;2023-11-21T03:06:44;9.20;;;4.43;;
12758;SDS011;20944;47.048;15.390;2023-11-21T03:09:13;8.77;;;4.80;;
12758;SDS011;20944;47.048;15.390;2023-11-21T03:11:41;7.50;;;4.10;;
12758;SDS011;20944;47.048;15.390;2023-11-21T03:14:09;8.83;;;4.73;;
12758;SDS011;20944;47.048;15.390;2023-11-21T03:16:39;6.77;;;3.47;;
12758;SDS011;20944;47.048;15.390;2023-11-21T03:19:08;4.53;;;3.27;;
12758;SDS011;20944;47.048;15.390;2023-11-21T03:21:36;12.43;;;5.27;;
12758;SDS011;20944;47.048;15.390;2023-11-21T03:24:05;5.07;;;3.90;;
12758;SDS011;20944;47.048;15.390;2023-11-21T03:26:34;6.77;;;3.83;;
12758;SDS011;20944;47.048;15.390;2023-11-21T03:29:04;6.33;;;4.03;;
12758;SDS011;20944;47.048;15.390;2023-11-21T03:31:32;7.27;;;3.90;;
12758;SDS011;20944;47.048;15.390;2023-11-21T03:34:02;5.93;;;3.83;;
12758;SDS011;20944;47.048;15.390;2023-11-21T03:36:30;5.93;;;3.57;;
12758;SDS011;20944;47.048;15.390;2023-11-21T03:38:59;5.07;;;3.50;;
12758;SDS011;20944;47.048;15.390;2023-11-21T03:41:27;5.53;;;3.40;;
12758;SDS011;20944;47.048;15.390;2023-11-21T03:43:55;6.23;;;3.80;;
12758;SDS011;20944;47.048;15.390;2023-11-21T03:46:23;4.83;;;3.03;;
12758;SDS011;20944;47.048;15.390;2023-11-21T03:48:52;5.63;;;2.87;;
12758;SDS011;20944;47.048;15.390;2023-11-21T03:51:23;3.47;;;2.77;;
12758;SDS011;20944;47.048;15.390;2023-11-21T03:53:51;3.83;;;2.63;;
12758;SDS011;20944;47.048;15.390;2023-11-21T03:56:20;7.17;;;4.03;;
12758;SDS011;20944;47.048;15.390;2023-11-21T03:58:48;4.53;;;3.20;;
12758;SDS011;20944;47.048;15.390;2023-11-21T04:01:20;9.20;;;4.43;;
12758;SDS011;20944;47.048;15.390;2023-11-21T04:03:49;4.67;;;3.40;;
12758;SDS011;20944;47.048;15.390;2023-11-21T04:06:18;7.40;;;3.40;;
12758;SDS011;20944;47.048;15.390;2023-11-21T04:08:48;9.10;;;3.50;;
12758;SDS011;20944;47.048;15.390;2023-11-21T04:11:16;10.37;;;3.30;;
12758;SDS011;20944;47.048;15.390;2023-11-21T04:13:44;4.57;;;3.20;;
12758;SDS011;20944;47.048;15.390;2023-11-21T04:16:13;6.83;;;3.87;;
12758;SDS011;20944;47.048;15.390;2023-11-21T04:18:41;4.20;;;2.53;;
12758;SDS011;20944;47.048;15.390;2023-11-21T04:21:10;5.50;;;2.90;;
12758;SDS011;20944;47.048;15.390;2023-11-21T04:23:38;9.90;;;3.57;;
12758;SDS011;20944;47.048;15.390;2023-11-21T04:26:08;5.30;;;3.03;;
12758;SDS011;20944;47.048;15.390;2023-11-21T04:28:36;6.03;;;2.83;;
12758;SDS011;20944;47.048;15.390;2023-11-21T04:31:04;6.23;;;3.90;;
12758;SDS011;20944;47.048;15.390;2023-11-21T04:33:33;5.50;;;3.50;;
12758;SDS011;20944;47.048;15.390;2023-11-21T04:36:01;7.53;;;3.80;;
12758;SDS011;20944;47.048;15.390;2023-11-21T04:38:30;5.73;;;3.07;;
12758;SDS011;20944;47.048;15.390;2023-11-21T04:40:59;6.07;;;3.63;;
12758;SDS011;20944;47.048;15.390;2023-11-21T04:43:30;5.17;;;3.23;;
12758;SDS011;20944;47.048;15.390;2023-11-21T04:45:59;7.37;;;3.43;;
12758;SDS011;20944;47.048;15.390;2023-11-21T04:48:28;5.30;;;3.53;;
12758;SDS011;20944;47.048;15.390;2023-11-21T04:50:57;4.10;;;3.10;;
12758;SDS011;20944;47.048;15.390;2023-11-21T04:53:25;5.93;;;3.30;;
12758;SDS011;20944;47.048;15.390;2023-11-21T04:55:54;4.80;;;3.50;;
12758;SDS011;20944;47.048;15.390;2023-11-21T04:58:22;6.83;;;4.13;;
12758;SDS011;20944;47.048;15.390;2023-11-21T05:00:52;3.57;;;2.93;;
12758;SDS011;20944;47.048;15.390;2023-11-21T05:03:20;3.87;;;2.80;;
12758;SDS011;20944;47.048;15.390;2023-11-21T05:05:50;3.40;;;2.87;;
12758;SDS011;20944;47.048;15.390;2023-11-21T05:08:19;5.80;;;3.30;;
12758;SDS011;20944;47.048;15.390;2023-11-21T05:10:49;6.00;;;3.20;;
12758;SDS011;20944;47.048;15.390;2023-11-21T05:13:18;4.43;;;2.77;;
12758;SDS011;20944;47.048;15.390;2023-11-21T05:15:47;4.87;;;2.80;;
12758;SDS011;20944;47.048;15.390;2023-11-21T05:18:16;7.07;;;3.17;;
12758;SDS011;20944;47.048;15.390;2023-11-21T05:20:45;4.80;;;3.57;;
12758;SDS011;20944;47.048;15.390;2023-11-21T05:23:13;3.70;;;3.20;;
12758;SDS011;20944;47.048;15.390;2023-11-21T05:25:42;5.43;;;3.20;;
12758;SDS011;20944;47.048;15.390;2023-11-21T05:28:10;4.73;;;3.43;;
12758;SDS011;20944;47.048;15.390;2023-11-21T05:30:38;4.27;;;2.67;;
12758;SDS011;20944;47.048;15.390;2023-11-21T05:33:07;7.57;;;3.50;;
12758;SDS011;20944;47.048;15.390;2023-11-21T05:35:37;6.30;;;3.73;;
12758;SDS011;20944;47.048;15.390;2023-11-21T05:38:05;6.67;;;3.30;;
12758;SDS011;20944;47.048;15.390;2023-11-21T05:40:33;4.67;;;2.87;;
12758;SDS011;20944;47.048;15.390;2023-11-21T05:43:01;7.03;;;3.37;;
12758;SDS011;20944;47.048;15.390;2023-11-21T05:45:31;4.80;;;3.03;;
12758;SDS011;20944;47.048;15.390;2023-11-21T05:48:00;5.03;;;2.60;;
12758;SDS011;20944;47.048;15.390;2023-11-21T05:50:31;4.83;;;3.33;;
12758;SDS011;20944;47.048;15.390;2023-11-21T05:53:00;6.37;;;3.50;;
12758;SDS011;20944;47.048;15.390;2023-11-21T05:55:29;6.77;;;3.73;;
12758;SDS011;20944;47.048;15.390;2023-11-21T05:57:57;6.70;;;3.27;;
12758;SDS011;20944;47.048;15.390;2023-11-21T06:00:26;5.63;;;3.47;;
12758;SDS011;20944;47.048;15.390;2023-11-21T06:02:54;6.27;;;3.50;;
12758;SDS011;20944;47.048;15.390;2023-11-21T06:05:24;6.37;;;3.43;;
12758;SDS011;20944;47.048;15.390;2023-11-21T06:07:53;9.73;;;3.90;;
12758;SDS011;20944;47.048;15.390;2023-11-21T06:10:27;5.43;;;3.77;;
12758;SDS011;20944;47.048;15.390;2023-11-21T06:12:55;9.57;;;3.77;;
12758;SDS011;20944;47.048;15.390;2023-11-21T06:15:28;5.03;;;2.97;;
12758;SDS011;20944;47.048;15.390;2023-11-21T06:17:57;7.17;;;3.70;;
12758;SDS011;20944;47.048;15.390;2023-11-21T06:20:26;5.53;;;4.20;;
12758;SDS011;20944;47.048;15.390;2023-11-21T06:22:54;4.80;;;3.70;;
12758;SDS011;20944;47.048;15.390;2023-11-21T06:25:23;8.90;;;4.13;;
12758;SDS011;20944;47.048;15.390;2023-11-21T06:27:52;5.80;;;4.10;;
12758;SDS011;20944;47.048;15.390;2023-11-21T06:30:21;7.70;;;3.20;;
12758;SDS011;20944;47.048;15.390;2023-11-21T06:32:50;7.20;;;3.87;;
12758;SDS011;20944;47.048;15.390;2023-11-21T06:35:19;5.73;;;3.20;;
12758;SDS011;20944;47.048;15.390;2023-11-21T06:37:48;6.23;;;3.10;;
12758;SDS011;20944;47.048;15.390;2023-11-21T06:40:19;5.37;;;3.73;;
12758;SDS011;20944;47.048;15.390;2023-11-21T06:42:48;5.20;;;3.53;;
12758;SDS011;20944;47.048;15.390;2023-11-21T06:45:18;9.07;;;3.73;;
12758;SDS011;20944;47.048;15.390;2023-11-21T06:47:48;8.23;;;3.70;;
12758;SDS011;20944;47.048;15.390;2023-11-21T06:50:17;6.23;;;3.80;;
12758;SDS011;20944;47.048;15.390;2023-11-21T06:52:46;7.03;;;4.63;;
12758;SDS011;20944;47.048;15.390;2023-11-21T06:55:15;9.40;;;4.73;;
12758;SDS011;20944;47.048;15.390;2023-11-21T06:57:43;6.57;;;3.77;;
12758;SDS011;20944;47.048;15.390;2023-11-21T07:00:15;5.13;;;3.13;;
12758;SDS011;20944;47.048;15.390;2023-11-21T07:02:47;5.27;;;3.70;;
12758;SDS011;20944;47.048;15.390;2023-11-21T07:05:16;4.97;;;3.67;;
12758;SDS011;20944;47.048;15.390;2023-11-21T07:07:48;7.60;;;4.10;;
12758;SDS011;20944;47.048;15.390;2023-11-21T07:10:19;6.90;;;4.13;;
12758;SDS011;20944;47.048;15.390;2023-11-21T07:12:48;5.87;;;3.67;;
12758;SDS011;20944;47.048;15.390;2023-11-21T07:15:18;4.57;;;3.80;;
12758;SDS011;20944;47.048;15.390;2023-11-21T07:17:47;5.97;;;4.30;;
12758;SDS011;20944;47.048;15.390;2023-11-21T07:20:16;7.33;;;4.03;;
12758;SDS011;20944;47.048;15.390;2023-11-21T07:22:45;6.37;;;4.43;;
12758;SDS011;20944;47.048;15.390;2023-11-21T07:25:13;9.90;;;4.63;;
12758;SDS011;20944;47.048;15.390;2023-11-21T07:27:42;7.63;;;4.43;;
12758;SDS011;20944;47.048;15.390;2023-11-21T07:30:11;6.80;;;4.03;;
12758;SDS011;20944;47.048;15.390;2023-11-21T07:32:40;9.03;;;4.60;;
12758;SDS011;20944;47.048;15.390;2023-11-21T07:35:10;8.20;;;5.00;;
12758;SDS011;20944;47.048;15.390;2023-11-21T07:37:38;8.53;;;4.73;;
12758;SDS011;20944;47.048;15.390;2023-11-21T07:40:07;11.47;;;4.87;;
12758;SDS011;20944;47.048;15.390;2023-11-21T07:42:38;12.60;;;5.90;;
12758;SDS011;20944;47.048;15.390;2023-11-21T07:45:06;8.40;;;4.33;;
12758;SDS011;20944;47.048;15.390;2023-11-21T07:47:35;7.90;;;4.57;;
12758;SDS011;20944;47.048;15.390;2023-11-21T07:50:06;8.37;;;4.00;;
12758;SDS011;20944;47.048;15.390;2023-11-21T07:52:37;6.87;;;4.37;;
12758;SDS011;20944;47.048;15.390;2023-11-21T07:55:06;9.43;;;4.83;;
12758;SDS011;20944;47.048;15.390;2023-11-21T07:57:35;7.37;;;4.63;;
12758;SDS011;20944;47.048;15.390;2023-11-21T08:00:03;6.47;;;4.40;;
12758;SDS011;20944;47.048;15.390;2023-11-21T08:02:36;6.53;;;3.90;;
12758;SDS011;20944;47.048;15.390;2023-11-21T08:05:04;10.20;;;4.83;;
12758;SDS011;20944;47.048;15.390;2023-11-21T08:07:42;7.30;;;4.17;;
12758;SDS011;20944;47.048;15.390;2023-11-21T08:10:10;9.03;;;4.37;;
12758;SDS011;20944;47.048;15.390;2023-11-21T08:12:38;7.17;;;3.93;;
12758;SDS011;20944;47.048;15.390;2023-11-21T08:15:09;7.33;;;3.43;;
12758;SDS011;20944;47.048;15.390;2023-11-21T08:17:37;5.73;;;3.63;;
12758;SDS011;20944;47.048;15.390;2023-11-21T08:20:06;5.50;;;3.80;;
12758;SDS011;20944;47.048;15.390;2023-11-21T08:22:35;6.13;;;3.43;;
12758;SDS011;20944;47.048;15.390;2023-11-21T08:25:05;8.63;;;4.10;;
12758;SDS011;20944;47.048;15.390;2023-11-21T08:27:34;10.00;;;3.50;;
12758;SDS011;20944;47.048;15.390;2023-11-21T08:30:03;6.00;;;4.20;;
12758;SDS011;20944;47.048;15.390;2023-11-21T08:32:31;7.83;;;3.87;;
12758;SDS011;20944;47.048;15.390;2023-11-21T08:35:00;2.60;;;2.40;;
12758;SDS011;20944;47.048;15.390;2023-11-21T08:37:29;4.67;;;3.00;;
12758;SDS011;20944;47.048;15.390;2023-11-21T08:39:59;8.03;;;4.00;;
12758;SDS011;20944;47.048;15.390;2023-11-21T08:42:30;6.60;;;3.70;;
12758;SDS011;20944;47.048;15.390;2023-11-21T08:44:58;4.67;;;3.33;;
12758;SDS011;20944;47.048;15.390;2023-11-21T08:47:27;5.77;;;3.33;;
12758;SDS011;20944;47.048;15.390;2023-11-21T08:49:55;5.77;;;3.67;;
12758;SDS011;20944;47.048;15.390;2023-11-21T08:52:25;5.90;;;3.37;;
12758;SDS011;20944;47.048;15.390;2023-11-21T08:54:53;5.30;;;3.53;;
12758;SDS011;20944;47.048;15.390;2023-11-21T08:57:23;7.87;;;5.17;;
12758;SDS011;20944;47.048;15.390;2023-11-21T08:59:53;9.43;;;5.90;;
12758;SDS011;20944;47.048;15.390;2023-11-21T09:02:22;7.10;;;4.63;;
12758;SDS011;20944;47.048;15.390;2023-11-21T09:04:51;9.93;;;5.50;;
12758;SDS011;20944;47.048;15.390;2023-11-21T09:07:19;9.30;;;6.00;;
12758;SDS011;20944;47.048;15.390;2023-11-21T09:09:47;10.47;;;5.67;;
12758;SDS011;20944;47.048;15.390;2023-11-21T09:12:16;8.70;;;5.50;;
12758;SDS011;20944;47.048;15.390;2023-11-21T09:14:45;8.17;;;5.80;;
12758;SDS011;20944;47.048;15.390;2023-11-21T09:17:15;9.80;;;5.90;;
12758;SDS011;20944;47.048;15.390;2023-11-21T09:19:44;7.47;;;5.30;;
12758;SDS011;20944;47.048;15.390;2023-11-21T09:22:16;9.30;;;4.77;;
12758;SDS011;20944;47.048;15.390;2023-11-21T09:24:45;6.77;;;4.87;;
12758;SDS011;20944;47.048;15.390;2023-11-21T09:27:14;9.53;;;5.03;;
12758;SDS011;20944;47.048;15.390;2023-11-21T09:29:43;12.23;;;4.57;;
12758;SDS011;20944;47.048;15.390;2023-11-21T09:32:12;10.90;;;4.03;;
12758;SDS011;20944;47.048;15.390;2023-11-21T09:34:44;6.43;;;3.50;;
12758;SDS011;20944;47.048;15.390;2023-11-21T09:37:12;4.87;;;3.77;;
12758;SDS011;20944;47.048;15.390;2023-11-21T09:39:41;10.77;;;4.13;;
12758;SDS011;20944;47.048;15.390;2023-11-21T09:42:10;7.23;;;4.13;;
12758;SDS011;20944;47.048;15.390;2023-11-21T09:44:44;7.13;;;3.93;;
12758;SDS011;20944;47.048;15.390;2023-11-21T09:47:16;6.67;;;4.20;;
12758;SDS011;20944;47.048;15.390;2023-11-21T09:49:48;6.17;;;4.63;;
12758;SDS011;20944;47.048;15.390;2023-11-21T09:52:24;6.73;;;4.07;;
12758;SDS011;20944;47.048;15.390;2023-11-21T09:54:54;7.17;;;4.63;;
12758;SDS011;20944;47.048;15.390;2023-11-21T09:57:23;7.93;;;4.83;;
12758;SDS011;20944;47.048;15.390;2023-11-21T09:59:52;6.97;;;4.33;;
12758;SDS011;20944;47.048;15.390;2023-11-21T10:02:27;7.27;;;4.53;;
12758;SDS011;20944;47.048;15.390;2023-11-21T10:04:59;7.20;;;4.50;;
12758;SDS011;20944;47.048;15.390;2023-11-21T10:07:27;7.33;;;5.40;;
12758;SDS011;20944;47.048;15.390;2023-11-21T10:09:59;12.23;;;4.90;;
12758;SDS011;20944;47.048;15.390;2023-11-21T10:12:29;6.70;;;3.93;;
12758;SDS011;20944;47.048;15.390;2023-11-21T10:15:00;8.17;;;4.17;;
12758;SDS011;20944;47.048;15.390;2023-11-21T10:17:32;5.93;;;3.80;;
12758;SDS011;20944;47.048;15.390;2023-11-21T10:20:11;6.23;;;3.97;;
12758;SDS011;20944;47.048;15.390;2023-11-21T10:22:40;7.67;;;3.70;;
12758;SDS011;20944;47.048;15.390;2023-11-21T10:25:09;10.37;;;4.27;;
12758;SDS011;20944;47.048;15.390;2023-11-21T10:27:41;6.67;;;4.23;;
12758;SDS011;20944;47.048;15.390;2023-11-21T10:30:10;7.50;;;3.77;;
12758;SDS011;20944;47.048;15.390;2023-11-21T10:32:39;8.20;;;4.67;;
12758;SDS011;20944;47.048;15.390;2023-11-21T10:35:07;4.77;;;2.97;;
12758;SDS011;20944;47.048;15.390;2023-11-21T10:37:39;6.53;;;3.17;;
12758;SDS011;20944;47.048;15.390;2023-11-21T10:40:08;7.43;;;3.43;;
12758;SDS011;20944;47.048;15.390;2023-11-21T10:42:39;3.77;;;3.30;;
12758;SDS011;20944;47.048;15.390;2023-11-21T10:45:08;4.83;;;3.37;;
12758;SDS011;20944;47.048;15.390;2023-11-21T10:47:40;7.93;;;4.07;;
12758;SDS011;20944;47.048;15.390;2023-11-21T10:50:09;6.13;;;3.57;;
12758;SDS011;20944;47.048;15.390;2023-11-21T10:52:40;4.40;;;3.27;;
12758;SDS011;20944;47.048;15.390;2023-11-21T10:55:16;5.70;;;3.20;;
12758;SDS011;20944;47.048;15.390;2023-11-21T10:57:45;5.27;;;3.60;;
12758;SDS011;20944;47.048;15.390;2023-11-21T11:00:16;7.70;;;3.80;;
12758;SDS011;20944;47.048;15.390;2023-11-21T11:02:48;5.90;;;3.73;;
12758;SDS011;20944;47.048;15.390;2023-11-21T11:05:19;7.93;;;3.70;;
12758;SDS011;20944;47.048;15.390;2023-11-21T11:07:51;5.50;;;3.23;;
12758;SDS011;20944;47.048;15.390;2023-11-21T11:10:30;4.60;;;2.33;;
12758;SDS011;20944;47.048;15.390;2023-11-21T11:12:58;4.63;;;2.30;;
12758;SDS011;20944;47.048;15.390;2023-11-21T11:15:27;2.73;;;2.10;;
12758;SDS011;20944;47.048;15.390;2023-11-21T11:17:56;3.87;;;2.63;;
12758;SDS011;20944;47.048;15.390;2023-11-21T11:20:25;3.37;;;1.90;;
12758;SDS011;20944;47.048;15.390;2023-11-21T11:23:08;3.77;;;1.97;;
12758;SDS011;20944;47.048;15.390;2023-11-21T11:25:55;4.53;;;1.57;;
12758;SDS011;20944;47.048;15.390;2023-11-21T11:28:37;4.03;;;2.20;;
12758;SDS011;20944;47.048;15.390;2023-11-21T11:31:18;3.10;;;1.70;;
12758;SDS011;20944;47.048;15.390;2023-11-21T11:33:57;1.77;;;1.10;;
12758;SDS011;20944;47.048;15.390;2023-11-21T11:36:29;3.03;;;2.00;;
12758;SDS011;20944;47.048;15.390;2023-11-21T11:39:05;3.27;;;1.90;;
12758;SDS011;20944;47.048;15.390;2023-11-21T11:41:58;3.97;;;2.73;;
12758;SDS011;20944;47.048;15.390;2023-11-21T11:47:23;5.03;;;3.23;;
12758;SDS011;20944;47.048;15.390;2023-11-21T11:49:58;5.67;;;2.90;;
12758;SDS011;20944;47.048;15.390;2023-11-21T11:52:37;4.50;;;2.27;;
12758;SDS011;20944;47.048;15.390;2023-11-21T11:55:09;6.97;;;3.07;;
12758;SDS011;20944;47.048;15.390;2023-11-21T11:57:38;12.23;;;2.93;;
12758;SDS011;20944;47.048;15.390;2023-11-21T12:00:10;4.77;;;3.60;;
12758;SDS011;20944;47.048;15.390;2023-11-21T12:02:45;5.50;;;2.90;;
12758;SDS011;20944;47.048;15.390;2023-11-21T12:05:15;6.67;;;3.17;;
12758;SDS011;20944;47.048;15.390;2023-11-21T12:07:46;4.47;;;2.73;;
12758;SDS011;20944;47.048;15.390;2023-11-21T12:10:18;3.97;;;2.50;;
12758;SDS011;20944;47.048;15.390;2023-11-21T12:12:47;4.60;;;2.93;;
12758;SDS011;20944;47.048;15.390;2023-11-21T12:15:17;4.00;;;2.40;;
12758;SDS011;20944;47.048;15.390;2023-11-21T12:17:46;3.83;;;2.67;;
12758;SDS011;20944;47.048;15.390;2023-11-21T12:20:16;3.37;;;2.53;;
12758;SDS011;20944;47.048;15.390;2023-11-21T12:22:47;3.10;;;2.80;;
12758;SDS011;20944;47.048;15.390;2023-11-21T12:25:18;3.27;;;2.73;;
12758;SDS011;20944;47.048;15.390;2023-11-21T12:27:48;4.30;;;2.90;;
12758;SDS011;20944;47.048;15.390;2023-11-21T12:30:18;4.67;;;2.83;;
12758;SDS011;20944;47.048;15.390;2023-11-21T12:32:49;6.43;;;3.50;;
12758;SDS011;20944;47.048;15.390;2023-11-21T12:35:19;7.10;;;3.73;;
12758;SDS011;20944;47.048;15.390;2023-11-21T12:37:50;4.23;;;3.37;;
12758;SDS011;20944;47.048;15.390;2023-11-21T12:40:21;6.07;;;3.13;;
12758;SDS011;20944;47.048;15.390;2023-11-21T12:42:51;7.50;;;3.10;;
12758;SDS011;20944;47.048;15.390;2023-11-21T12:45:21;5.13;;;3.53;;
12758;SDS011;20944;47.048;15.390;2023-11-21T12:47:54;6.30;;;3.63;;
12758;SDS011;20944;47.048;15.390;2023-11-21T12:50:26;5.50;;;3.33;;
12758;SDS011;20944;47.048;15.390;2023-11-21T12:52:59;4.90;;;3.47;;
12758;SDS011;20944;47.048;15.390;2023-11-21T12:55:31;7.47;;;4.27;;
12758;SDS011;20944;47.048;15.390;2023-11-21T12:58:05;5.30;;;3.77;;
12758;SDS011;20944;47.048;15.390;2023-11-21T13:00:37;7.10;;;4.13;;
12758;SDS011;20944;47.048;15.390;2023-11-21T13:03:09;7.17;;;3.77;;
12758;SDS011;20944;47.048;15.390;2023-11-21T13:05:44;6.87;;;3.10;;
12758;SDS011;20944;47.048;15.390;2023-11-21T13:08:14;6.37;;;3.70;;
12758;SDS011;20944;47.048;15.390;2023-11-21T13:10:49;6.87;;;4.33;;
12758;SDS011;20944;47.048;15.390;2023-11-21T13:13:21;7.77;;;3.60;;
12758;SDS011;20944;47.048;15.390;2023-11-21T13:15:51;4.83;;;3.60;;
12758;SDS011;20944;47.048;15.390;2023-11-21T13:18:22;6.90;;;3.73;;
12758;SDS011;20944;47.048;15.390;2023-11-21T13:20:53;5.57;;;3.67;;
12758;SDS011;20944;47.048;15.390;2023-11-21T13:23:23;4.50;;;3.27;;
12758;SDS011;20944;47.048;15.390;2023-11-21T13:25:53;6.77;;;3.47;;
12758;SDS011;20944;47.048;15.390;2023-11-21T13:28:30;6.00;;;4.27;;
12758;SDS011;20944;47.048;15.390;2023-11-21T13:31:00;4.73;;;3.20;;
12758;SDS011;20944;47.048;15.390;2023-11-21T13:33:37;6.43;;;4.07;;
12758;SDS011;20944;47.048;15.390;2023-11-21T13:36:05;5.33;;;3.73;;
12758;SDS011;20944;47.048;15.390;2023-11-21T13:38:36;5.17;;;3.50;;
12758;SDS011;20944;47.048;15.390;2023-11-21T13:41:11;5.37;;;4.03;;
12758;SDS011;20944;47.048;15.390;2023-11-21T13:43:41;7.43;;;3.87;;
12758;SDS011;20944;47.048;15.390;2023-11-21T13:46:17;6.13;;;3.57;;
12758;SDS011;20944;47.048;15.390;2023-11-21T13:48:49;6.93;;;3.87;;
12758;SDS011;20944;47.048;15.390;2023-11-21T13:51:23;5.93;;;3.67;;
12758;SDS011;20944;47.048;15.390;2023-11-21T13:54:00;5.63;;;3.30;;
12758;SDS011;20944;47.048;15.390;2023-11-21T13:56:30;5.97;;;4.27;;
12758;SDS011;20944;47.048;15.390;2023-11-21T13:58:59;6.17;;;3.83;;
12758;SDS011;20944;47.048;15.390;2023-11-21T14:01:53;7.90;;;3.63;;
12758;SDS011;20944;47.048;15.390;2023-11-21T14:04:24;5.23;;;3.63;;
12758;SDS011;20944;47.048;15.390;2023-11-21T14:07:13;5.90;;;4.13;;
12758;SDS011;20944;47.048;15.390;2023-11-21T14:09:53;8.13;;;3.80;;
12758;SDS011;20944;47.048;15.390;2023-11-21T14:12:24;4.03;;;3.40;;
12758;SDS011;20944;47.048;15.390;2023-11-21T14:14:52;7.20;;;4.27;;
12758;SDS011;20944;47.048;15.390;2023-11-21T14:17:21;6.73;;;4.20;;
12758;SDS011;20944;47.048;15.390;2023-11-21T14:19:51;7.53;;;4.00;;
12758;SDS011;20944;47.048;15.390;2023-11-21T14:22:19;6.97;;;4.40;;
12758;SDS011;20944;47.048;15.390;2023-11-21T14:24:47;7.47;;;3.80;;
12758;SDS011;20944;47.048;15.390;2023-11-21T14:27:18;12.93;;;4.33;;
12758;SDS011;20944;47.048;15.390;2023-11-21T14:29:48;5.53;;;4.33;;
12758;SDS011;20944;47.048;15.390;2023-11-21T14:32:17;6.03;;;3.67;;
12758;SDS011;20944;47.048;15.390;2023-11-21T14:34:45;8.57;;;4.40;;
12758;SDS011;20944;47.048;15.390;2023-11-21T14:37:15;7.40;;;4.30;;
12758;SDS011;20944;47.048;15.390;2023-11-21T14:39:43;6.13;;;4.23;;
12758;SDS011;20944;47.048;15.390;2023-11-21T14:42:14;8.07;;;4.20;;
12758;SDS011;20944;47.048;15.390;2023-11-21T14:44:49;8.43;;;3.83;;
12758;SDS011;20944;47.048;15.390;2023-11-21T14:47:18;8.80;;;4.00;;
12758;SDS011;20944;47.048;15.390;2023-11-21T14:49:52;6.43;;;3.57;;
12758;SDS011;20944;47.048;15.390;2023-11-21T14:52:20;7.13;;;3.73;;